KHNB/HNB METAR and TAF weather

Enter ICAO airport designator
Station Type Date Time Source
KHNB METAR 2018/12/15 19:56 UTC NOAA

KHNB 151956Z AUTO 02007KT 10SM OVC009 09/08 A2988 RMK AO2 SLP120 T00890078


Station Type Date Time Source
KHNB Decoded METAR 2018/12/15 19:56 UTC NOAA

Huntingburg, IN, United States (KHNB) 38-15N 086-57W
Dec 15, 2018 - 02:56 PM EST / 2018.12.15 1956 UTC
Wind: from the NNE (020 degrees) at 8 MPH (7 KT):0
Visibility: 10 mile(s):0
Sky conditions: overcast
Temperature: 48.0 F (8.9 C)
Dew Point: 46.0 F (7.8 C)
Relative Humidity: 92%
Pressure (altimeter): 29.88 in. Hg (1011 hPa)
ob: KHNB 151956Z AUTO 02007KT 10SM OVC009 09/08 A2988 RMK AO2 SLP120 T00890078
cycle: 20

Station Type Date Time Source
KHNB TAF 2018/12/15 18:33 UTC NOAA

TAF
AMD KHNB 151730Z 1518/1618 04010KT 6SM -SHRA BR OVC011
FM152000 VRB06KT P6SM -SHRA OVC008
FM160400 34007KT P6SM OVC012
FM161300 33007KT P6SM BKN026
FM161500 33007KT P6SM SCT030


Example: see airport list